sensor_id;sensor_type;location;lat;lon;timestamp;pressure;altitude;pressure_sealevel;temperature;humidity
69239;BME280;56349;51.816;-0.026;2023-08-12T00:01:47;100936.71;;;28.22;33.97
69239;BME280;56349;51.816;-0.026;2023-08-12T00:04:03;100938.05;;;28.42;33.96
69239;BME280;56349;51.816;-0.026;2023-08-12T00:06:48;100936.47;;;28.42;33.94
69239;BME280;56349;51.816;-0.026;2023-08-12T00:08:54;100933.68;;;28.39;33.98
69239;BME280;56349;51.816;-0.026;2023-08-12T00:11:19;100936.97;;;28.38;33.98
69239;BME280;56349;51.816;-0.026;2023-08-12T00:13:45;100932.77;;;28.38;33.98
69239;BME280;56349;51.816;-0.026;2023-08-12T00:16:11;100933.35;;;28.16;33.96
69239;BME280;56349;51.816;-0.026;2023-08-12T00:18:37;100933.08;;;28.38;33.98
69239;BME280;56349;51.816;-0.026;2023-08-12T00:21:06;100931.33;;;28.36;33.97
69239;BME280;56349;51.816;-0.026;2023-08-12T00:23:29;100930.40;;;28.35;33.98
69239;BME280;56349;51.816;-0.026;2023-08-12T00:25:58;100931.19;;;28.35;33.97
69239;BME280;56349;51.816;-0.026;2023-08-12T00:28:20;100931.46;;;28.35;33.95
69239;BME280;56349;51.816;-0.026;2023-08-12T00:30:48;100929.43;;;28.12;33.95
69239;BME280;56349;51.816;-0.026;2023-08-12T00:33:29;100929.29;;;28.33;33.96
69239;BME280;56349;51.816;-0.026;2023-08-12T00:35:37;100926.98;;;28.07;33.97
69239;BME280;56349;51.816;-0.026;2023-08-12T00:38:03;100925.39;;;28.30;33.94
69239;BME280;56349;51.816;-0.026;2023-08-12T00:40:28;100923.19;;;28.08;33.91
69239;BME280;56349;51.816;-0.026;2023-08-12T00:42:54;100921.79;;;28.29;33.91
69239;BME280;56349;51.816;-0.026;2023-08-12T00:45:20;100918.83;;;28.28;33.88
69239;BME280;56349;51.816;-0.026;2023-08-12T00:47:56;100917.79;;;28.28;33.88
69239;BME280;56349;51.816;-0.026;2023-08-12T00:50:13;100912.26;;;28.26;33.86
69239;BME280;56349;51.816;-0.026;2023-08-12T00:52:37;100909.49;;;28.26;33.84
69239;BME280;56349;51.816;-0.026;2023-08-12T00:55:03;100909.33;;;28.25;33.82
69239;BME280;56349;51.816;-0.026;2023-08-12T00:57:29;100908.49;;;28.24;33.82
69239;BME280;56349;51.816;-0.026;2023-08-12T00:59:56;100907.98;;;28.23;33.76
69239;BME280;56349;51.816;-0.026;2023-08-12T01:02:20;100902.80;;;28.22;33.81
69239;BME280;56349;51.816;-0.026;2023-08-12T01:04:46;100903.24;;;28.23;33.76
69239;BME280;56349;51.816;-0.026;2023-08-12T01:07:12;100904.41;;;28.00;33.74
69239;BME280;56349;51.816;-0.026;2023-08-12T01:09:38;100904.46;;;28.22;33.68
69239;BME280;56349;51.816;-0.026;2023-08-12T01:12:08;100907.36;;;28.21;33.62
69239;BME280;56349;51.816;-0.026;2023-08-12T01:14:35;100908.37;;;28.18;33.59
69239;BME280;56349;51.816;-0.026;2023-08-12T01:16:59;100908.26;;;28.16;33.55
69239;BME280;56349;51.816;-0.026;2023-08-12T01:19:29;100904.91;;;28.16;33.52
69239;BME280;56349;51.816;-0.026;2023-08-12T01:21:49;100903.79;;;28.14;33.49
69239;BME280;56349;51.816;-0.026;2023-08-12T01:24:12;100902.25;;;28.13;33.51
69239;BME280;56349;51.816;-0.026;2023-08-12T01:26:48;100900.04;;;28.13;33.41
69239;BME280;56349;51.816;-0.026;2023-08-12T01:29:04;100895.66;;;28.11;33.39
69239;BME280;56349;51.816;-0.026;2023-08-12T01:31:34;100894.63;;;27.88;33.34
69239;BME280;56349;51.816;-0.026;2023-08-12T01:33:58;100893.87;;;28.09;33.33
69239;BME280;56349;51.816;-0.026;2023-08-12T01:36:21;100892.75;;;28.08;33.35
69239;BME280;56349;51.816;-0.026;2023-08-12T01:38:46;100889.71;;;28.09;33.28
69239;BME280;56349;51.816;-0.026;2023-08-12T01:41:13;100888.20;;;27.86;33.24
69239;BME280;56349;51.816;-0.026;2023-08-12T01:43:37;100888.06;;;28.08;33.19
69239;BME280;56349;51.816;-0.026;2023-08-12T01:46:02;100883.20;;;27.86;33.18
69239;BME280;56349;51.816;-0.026;2023-08-12T01:48:28;100884.15;;;28.06;33.17
69239;BME280;56349;51.816;-0.026;2023-08-12T01:50:54;100884.22;;;28.04;33.10
69239;BME280;56349;51.816;-0.026;2023-08-12T01:53:20;100880.16;;;28.04;33.10
69239;BME280;56349;51.816;-0.026;2023-08-12T01:55:48;100877.28;;;28.03;33.07
69239;BME280;56349;51.816;-0.026;2023-08-12T01:58:12;100876.63;;;28.02;33.08
69239;BME280;56349;51.816;-0.026;2023-08-12T02:00:38;100874.85;;;28.01;33.03
69239;BME280;56349;51.816;-0.026;2023-08-12T02:03:04;100877.96;;;28.26;32.94
69239;BME280;56349;51.816;-0.026;2023-08-12T02:05:31;100876.31;;;28.26;32.89
69239;BME280;56349;51.816;-0.026;2023-08-12T02:07:55;100873.86;;;27.98;32.94
69239;BME280;56349;51.816;-0.026;2023-08-12T02:10:21;100873.30;;;27.97;32.94
69239;BME280;56349;51.816;-0.026;2023-08-12T02:12:47;100872.05;;;28.23;32.92
69239;BME280;56349;51.816;-0.026;2023-08-12T02:15:13;100872.56;;;28.23;32.92
69239;BME280;56349;51.816;-0.026;2023-08-12T02:17:39;100872.59;;;27.73;32.87
69239;BME280;56349;51.816;-0.026;2023-08-12T02:20:06;100869.23;;;27.94;32.80
69239;BME280;56349;51.816;-0.026;2023-08-12T02:22:31;100869.02;;;27.94;32.85
69239;BME280;56349;51.816;-0.026;2023-08-12T02:24:57;100867.93;;;27.94;32.76
69239;BME280;56349;51.816;-0.026;2023-08-12T02:27:23;100868.30;;;28.20;32.74
69239;BME280;56349;51.816;-0.026;2023-08-12T02:29:49;100869.91;;;27.93;33.05
69239;BME280;56349;51.816;-0.026;2023-08-12T02:32:15;100869.06;;;27.92;32.89
69239;BME280;56349;51.816;-0.026;2023-08-12T02:34:40;100873.10;;;27.90;33.19
69239;BME280;56349;51.816;-0.026;2023-08-12T02:37:06;100872.27;;;28.14;33.02
69239;BME280;56349;51.816;-0.026;2023-08-12T02:39:32;100871.91;;;27.86;33.37
69239;BME280;56349;51.816;-0.026;2023-08-12T02:41:58;100874.76;;;27.84;33.28
69239;BME280;56349;51.816;-0.026;2023-08-12T02:44:24;100876.68;;;28.09;33.26
69239;BME280;56349;51.816;-0.026;2023-08-12T02:46:50;100878.18;;;27.82;33.16
69239;BME280;56349;51.816;-0.026;2023-08-12T02:49:15;100875.28;;;27.80;33.05
69239;BME280;56349;51.816;-0.026;2023-08-12T02:51:41;100876.51;;;27.79;33.24
69239;BME280;56349;51.816;-0.026;2023-08-12T02:54:07;100879.38;;;27.80;33.19
69239;BME280;56349;51.816;-0.026;2023-08-12T02:56:33;100878.43;;;28.07;33.33
69239;BME280;56349;51.816;-0.026;2023-08-12T02:58:59;100876.99;;;27.79;33.41
69239;BME280;56349;51.816;-0.026;2023-08-12T03:01:25;100875.82;;;27.78;33.34
69239;BME280;56349;51.816;-0.026;2023-08-12T03:03:50;100870.87;;;28.05;33.27
69239;BME280;56349;51.816;-0.026;2023-08-12T03:06:16;100873.56;;;27.77;33.17
69239;BME280;56349;51.816;-0.026;2023-08-12T03:08:42;100874.93;;;27.75;33.10
69239;BME280;56349;51.816;-0.026;2023-08-12T03:11:08;100877.52;;;28.00;33.14
69239;BME280;56349;51.816;-0.026;2023-08-12T03:13:34;100879.67;;;27.73;33.23
69239;BME280;56349;51.816;-0.026;2023-08-12T03:15:59;100880.92;;;27.98;33.15
69239;BME280;56349;51.816;-0.026;2023-08-12T03:18:25;100879.75;;;27.71;33.20
69239;BME280;56349;51.816;-0.026;2023-08-12T03:20:51;100873.24;;;27.70;33.33
69239;BME280;56349;51.816;-0.026;2023-08-12T03:23:17;100872.36;;;27.69;33.13
69239;BME280;56349;51.816;-0.026;2023-08-12T03:25:43;100875.65;;;27.69;33.16
69239;BME280;56349;51.816;-0.026;2023-08-12T03:28:09;100877.02;;;27.94;33.16
69239;BME280;56349;51.816;-0.026;2023-08-12T03:30:35;100873.80;;;27.67;33.29
69239;BME280;56349;51.816;-0.026;2023-08-12T03:33:01;100877.59;;;27.69;33.59
69239;BME280;56349;51.816;-0.026;2023-08-12T03:35:27;100871.48;;;27.76;33.64
69239;BME280;56349;51.816;-0.026;2023-08-12T03:37:53;100874.36;;;27.90;33.67
69239;BME280;56349;51.816;-0.026;2023-08-12T03:40:18;100874.06;;;28.08;33.58
69239;BME280;56349;51.816;-0.026;2023-08-12T03:42:44;100875.20;;;28.10;33.42
69239;BME280;56349;51.816;-0.026;2023-08-12T03:45:10;100870.23;;;28.13;33.19
69239;BME280;56349;51.816;-0.026;2023-08-12T03:47:36;100871.84;;;28.33;32.94
69239;BME280;56349;51.816;-0.026;2023-08-12T03:50:03;100875.12;;;28.50;32.70
69239;BME280;56349;51.816;-0.026;2023-08-12T03:52:27;100875.45;;;28.60;32.52
69239;BME280;56349;51.816;-0.026;2023-08-12T03:54:53;100878.29;;;28.68;32.36
69239;BME280;56349;51.816;-0.026;2023-08-12T03:57:19;100876.39;;;28.71;32.20
69239;BME280;56349;51.816;-0.026;2023-08-12T03:59:45;100871.41;;;29.14;32.15
69239;BME280;56349;51.816;-0.026;2023-08-12T04:02:11;100872.81;;;28.67;32.12
69239;BME280;56349;51.816;-0.026;2023-08-12T04:04:37;100871.05;;;28.63;32.03
69239;BME280;56349;51.816;-0.026;2023-08-12T04:07:03;100870.23;;;29.02;32.00
69239;BME280;56349;51.816;-0.026;2023-08-12T04:09:28;100871.57;;;28.95;32.02
69239;BME280;56349;51.816;-0.026;2023-08-12T04:11:54;100866.04;;;28.43;32.04
69239;BME280;56349;51.816;-0.026;2023-08-12T04:14:20;100866.86;;;28.59;32.12
69239;BME280;56349;51.816;-0.026;2023-08-12T04:16:46;100865.55;;;28.51;32.14
69239;BME280;56349;51.816;-0.026;2023-08-12T04:19:12;100863.26;;;28.21;32.25
69239;BME280;56349;51.816;-0.026;2023-08-12T04:21:38;100860.64;;;28.37;32.22
69239;BME280;56349;51.816;-0.026;2023-08-12T04:24:04;100860.74;;;28.31;32.21
69239;BME280;56349;51.816;-0.026;2023-08-12T04:26:29;100861.46;;;28.47;32.36
69239;BME280;56349;51.816;-0.026;2023-08-12T04:28:55;100857.35;;;27.98;32.38
69239;BME280;56349;51.816;-0.026;2023-08-12T04:31:21;100855.66;;;28.37;32.39
69239;BME280;56349;51.816;-0.026;2023-08-12T04:33:47;100859.52;;;28.31;32.46
69239;BME280;56349;51.816;-0.026;2023-08-12T04:36:13;100866.69;;;28.03;32.45
69239;BME280;56349;51.816;-0.026;2023-08-12T04:38:39;100862.32;;;28.21;32.52
69239;BME280;56349;51.816;-0.026;2023-08-12T04:41:05;100857.10;;;28.16;32.64
69239;BME280;56349;51.816;-0.026;2023-08-12T04:43:31;100852.33;;;28.11;32.55
69239;BME280;56349;51.816;-0.026;2023-08-12T04:45:56;100852.35;;;28.07;32.73
69239;BME280;56349;51.816;-0.026;2023-08-12T04:48:22;100851.29;;;28.03;32.67
69239;BME280;56349;51.816;-0.026;2023-08-12T04:50:48;100853.76;;;28.00;32.81
69239;BME280;56349;51.816;-0.026;2023-08-12T04:53:14;100851.43;;;27.96;32.82
69239;BME280;56349;51.816;-0.026;2023-08-12T04:55:40;100849.79;;;28.19;32.98
69239;BME280;56349;51.816;-0.026;2023-08-12T04:58:06;100849.22;;;28.15;33.06
69239;BME280;56349;51.816;-0.026;2023-08-12T05:00:32;100843.75;;;27.85;33.13
69239;BME280;56349;51.816;-0.026;2023-08-12T05:02:57;100841.27;;;28.08;33.14
69239;BME280;56349;51.816;-0.026;2023-08-12T05:05:25;100840.22;;;27.79;33.18
69239;BME280;56349;51.816;-0.026;2023-08-12T05:07:49;100848.18;;;28.01;33.12
69239;BME280;56349;51.816;-0.026;2023-08-12T05:10:16;100848.99;;;27.98;33.17
69239;BME280;56349;51.816;-0.026;2023-08-12T05:12:41;100846.14;;;27.69;33.09
69239;BME280;56349;51.816;-0.026;2023-08-12T05:15:07;100844.71;;;27.67;33.01
69239;BME280;56349;51.816;-0.026;2023-08-12T05:17:31;100842.04;;;27.66;32.97
69239;BME280;56349;51.816;-0.026;2023-08-12T05:19:57;100835.61;;;27.67;32.93
69239;BME280;56349;51.816;-0.026;2023-08-12T05:22:23;100830.16;;;27.91;32.94
69239;BME280;56349;51.816;-0.026;2023-08-12T05:24:49;100827.86;;;27.61;32.95
69239;BME280;56349;51.816;-0.026;2023-08-12T05:27:15;100825.33;;;27.61;32.97
69239;BME280;56349;51.816;-0.026;2023-08-12T05:29:41;100821.65;;;27.85;33.00
69239;BME280;56349;51.816;-0.026;2023-08-12T05:32:07;100820.61;;;27.82;33.01
69239;BME280;56349;51.816;-0.026;2023-08-12T05:34:33;100822.05;;;27.54;33.03
69239;BME280;56349;51.816;-0.026;2023-08-12T05:36:59;100817.31;;;27.79;33.06
69239;BME280;56349;51.816;-0.026;2023-08-12T05:39:24;100817.32;;;27.50;33.06
69239;BME280;56349;51.816;-0.026;2023-08-12T05:41:50;100817.52;;;27.47;33.11
69239;BME280;56349;51.816;-0.026;2023-08-12T05:44:16;100820.52;;;27.46;33.13
69239;BME280;56349;51.816;-0.026;2023-08-12T05:46:42;100826.04;;;27.45;33.17
69239;BME280;56349;51.816;-0.026;2023-08-12T05:49:08;100827.62;;;27.72;33.16
69239;BME280;56349;51.816;-0.026;2023-08-12T05:51:34;100829.29;;;27.44;33.18
69239;BME280;56349;51.816;-0.026;2023-08-12T05:53:59;100826.64;;;27.69;33.19
69239;BME280;56349;51.816;-0.026;2023-08-12T05:56:25;100821.55;;;27.68;33.20
69239;BME280;56349;51.816;-0.026;2023-08-12T05:58:51;100815.18;;;27.66;33.23
69239;BME280;56349;51.816;-0.026;2023-08-12T06:01:17;100815.81;;;27.39;33.24
69239;BME280;56349;51.816;-0.026;2023-08-12T06:03:43;100818.71;;;27.38;33.23
69239;BME280;56349;51.816;-0.026;2023-08-12T06:06:09;100822.42;;;27.35;33.26
69239;BME280;56349;51.816;-0.026;2023-08-12T06:08:35;100824.43;;;27.61;33.28
69239;BME280;56349;51.816;-0.026;2023-08-12T06:11:01;100825.35;;;27.60;33.31
69239;BME280;56349;51.816;-0.026;2023-08-12T06:13:27;100826.87;;;27.59;33.31
69239;BME280;56349;51.816;-0.026;2023-08-12T06:15:53;100825.36;;;27.57;33.34
69239;BME280;56349;51.816;-0.026;2023-08-12T06:18:19;100822.14;;;27.30;33.34
69239;BME280;56349;51.816;-0.026;2023-08-12T06:20:45;100825.78;;;27.55;33.36
69239;BME280;56349;51.816;-0.026;2023-08-12T06:23:11;100832.56;;;27.54;33.38
69239;BME280;56349;51.816;-0.026;2023-08-12T06:25:37;100833.33;;;27.75;33.40
69239;BME280;56349;51.816;-0.026;2023-08-12T06:28:03;100827.61;;;27.25;33.41
69239;BME280;56349;51.816;-0.026;2023-08-12T06:30:28;100824.35;;;27.72;33.42
69239;BME280;56349;51.816;-0.026;2023-08-12T06:32:54;100820.48;;;27.49;33.43
69239;BME280;56349;51.816;-0.026;2023-08-12T06:35:20;100818.54;;;27.48;33.47
69239;BME280;56349;51.816;-0.026;2023-08-12T06:37:46;100818.10;;;27.47;33.45
69239;BME280;56349;51.816;-0.026;2023-08-12T06:40:12;100817.34;;;27.69;33.47
69239;BME280;56349;51.816;-0.026;2023-08-12T06:42:37;100822.83;;;27.46;33.48
69239;BME280;56349;51.816;-0.026;2023-08-12T06:45:03;100819.82;;;27.23;33.43
69239;BME280;56349;51.816;-0.026;2023-08-12T06:47:28;100824.59;;;27.48;33.45
69239;BME280;56349;51.816;-0.026;2023-08-12T06:49:55;100826.16;;;27.45;33.46
69239;BME280;56349;51.816;-0.026;2023-08-12T06:52:20;100821.75;;;27.17;33.48
69239;BME280;56349;51.816;-0.026;2023-08-12T06:54:46;100817.78;;;27.42;33.48
69239;BME280;56349;51.816;-0.026;2023-08-12T06:57:12;100809.52;;;27.63;33.48
69239;BME280;56349;51.816;-0.026;2023-08-12T06:59:38;100808.58;;;27.40;33.49
69239;BME280;56349;51.816;-0.026;2023-08-12T07:02:03;100811.00;;;27.62;33.49
69239;BME280;56349;51.816;-0.026;2023-08-12T07:04:29;100813.53;;;27.60;33.50
69239;BME280;56349;51.816;-0.026;2023-08-12T07:06:55;100817.30;;;27.59;33.49
69239;BME280;56349;51.816;-0.026;2023-08-12T07:09:21;100818.98;;;27.36;33.50
69239;BME280;56349;51.816;-0.026;2023-08-12T07:11:47;100823.54;;;27.59;33.50
69239;BME280;56349;51.816;-0.026;2023-08-12T07:14:13;100824.18;;;27.36;33.47
69239;BME280;56349;51.816;-0.026;2023-08-12T07:16:39;100823.16;;;27.37;33.48
69239;BME280;56349;51.816;-0.026;2023-08-12T07:19:05;100822.14;;;27.35;33.54
69239;BME280;56349;51.816;-0.026;2023-08-12T07:21:31;100824.84;;;27.56;33.59
69239;BME280;56349;51.816;-0.026;2023-08-12T07:23:57;100822.65;;;27.06;33.63
69239;BME280;56349;51.816;-0.026;2023-08-12T07:26:23;100821.47;;;27.32;33.65
69239;BME280;56349;51.816;-0.026;2023-08-12T07:28:48;100823.90;;;27.53;33.65
69239;BME280;56349;51.816;-0.026;2023-08-12T07:31:14;100824.25;;;27.53;33.65
69239;BME280;56349;51.816;-0.026;2023-08-12T07:33:40;100821.20;;;27.30;33.66
69239;BME280;56349;51.816;-0.026;2023-08-12T07:36:06;100819.41;;;27.53;33.71
69239;BME280;56349;51.816;-0.026;2023-08-12T07:38:32;100820.56;;;27.53;33.71
69239;BME280;56349;51.816;-0.026;2023-08-12T07:40:58;100824.93;;;27.05;33.71
69239;BME280;56349;51.816;-0.026;2023-08-12T07:43:24;100823.39;;;27.30;33.71
69239;BME280;56349;51.816;-0.026;2023-08-12T07:45:51;100828.23;;;27.52;33.75
69239;BME280;56349;51.816;-0.026;2023-08-12T07:48:16;100824.47;;;27.30;33.75
69239;BME280;56349;51.816;-0.026;2023-08-12T07:50:42;100822.22;;;27.30;33.76
69239;BME280;56349;51.816;-0.026;2023-08-12T07:53:08;100820.69;;;27.29;33.77
69239;BME280;56349;51.816;-0.026;2023-08-12T07:55:35;100822.39;;;27.51;33.78
69239;BME280;56349;51.816;-0.026;2023-08-12T07:58:00;100814.05;;;27.02;33.79
69239;BME280;56349;51.816;-0.026;2023-08-12T08:00:26;100809.87;;;27.28;33.79
69239;BME280;56349;51.816;-0.026;2023-08-12T08:02:52;100807.06;;;27.27;33.85
69239;BME280;56349;51.816;-0.026;2023-08-12T08:05:17;100805.40;;;27.28;33.88
69239;BME280;56349;51.816;-0.026;2023-08-12T08:07:43;100811.71;;;27.51;33.92
69239;BME280;56349;51.816;-0.026;2023-08-12T08:10:10;100810.66;;;27.50;33.96
69239;BME280;56349;51.816;-0.026;2023-08-12T08:12:35;100813.98;;;27.50;33.97
69239;BME280;56349;51.816;-0.026;2023-08-12T08:15:01;100817.03;;;27.01;33.98
69239;BME280;56349;51.816;-0.026;2023-08-12T08:17:27;100815.78;;;27.50;33.99
69239;BME280;56349;51.816;-0.026;2023-08-12T08:19:53;100810.46;;;27.50;33.98
69239;BME280;56349;51.816;-0.026;2023-08-12T08:22:19;100807.38;;;27.48;33.99
69239;BME280;56349;51.816;-0.026;2023-08-12T08:24:45;100809.02;;;27.48;33.98
69239;BME280;56349;51.816;-0.026;2023-08-12T08:27:11;100804.25;;;27.48;33.99
69239;BME280;56349;51.816;-0.026;2023-08-12T08:29:37;100803.89;;;27.26;34.02
69239;BME280;56349;51.816;-0.026;2023-08-12T08:32:03;100806.77;;;27.25;34.01
69239;BME280;56349;51.816;-0.026;2023-08-12T08:34:29;100802.87;;;27.48;34.02
69239;BME280;56349;51.816;-0.026;2023-08-12T08:36:55;100798.49;;;27.25;34.00
69239;BME280;56349;51.816;-0.026;2023-08-12T08:39:21;100800.56;;;27.46;34.02
69239;BME280;56349;51.816;-0.026;2023-08-12T08:41:48;100798.06;;;27.45;34.02
69239;BME280;56349;51.816;-0.026;2023-08-12T08:44:13;100795.16;;;27.23;34.02
69239;BME280;56349;51.816;-0.026;2023-08-12T08:46:37;100800.10;;;27.45;34.03
69239;BME280;56349;51.816;-0.026;2023-08-12T08:49:04;100802.00;;;27.45;34.03
69239;BME280;56349;51.816;-0.026;2023-08-12T08:51:30;100803.97;;;27.44;33.99
69239;BME280;56349;51.816;-0.026;2023-08-12T08:53:55;100808.02;;;27.43;34.00
69239;BME280;56349;51.816;-0.026;2023-08-12T08:56:19;100802.06;;;27.42;33.96
69239;BME280;56349;51.816;-0.026;2023-08-12T08:58:44;100806.17;;;27.42;34.00
69239;BME280;56349;51.816;-0.026;2023-08-12T09:01:10;100806.38;;;27.43;34.00
69239;BME280;56349;51.816;-0.026;2023-08-12T09:03:36;100805.37;;;27.21;34.02
69239;BME280;56349;51.816;-0.026;2023-08-12T09:06:01;100804.91;;;27.42;34.03
69239;BME280;56349;51.816;-0.026;2023-08-12T09:08:28;100798.92;;;27.43;34.05
69239;BME280;56349;51.816;-0.026;2023-08-12T09:10:53;100795.37;;;27.21;34.08
69239;BME280;56349;51.816;-0.026;2023-08-12T09:13:18;100795.95;;;27.21;34.06
69239;BME280;56349;51.816;-0.026;2023-08-12T09:15:44;100791.53;;;27.44;34.06
69239;BME280;56349;51.816;-0.026;2023-08-12T09:18:10;100790.39;;;27.43;34.08
69239;BME280;56349;51.816;-0.026;2023-08-12T09:20:37;100785.06;;;27.21;34.11
69239;BME280;56349;51.816;-0.026;2023-08-12T09:23:02;100782.01;;;27.22;34.12
69239;BME280;56349;51.816;-0.026;2023-08-12T09:25:27;100781.68;;;27.44;34.16
69239;BME280;56349;51.816;-0.026;2023-08-12T09:27:54;100779.15;;;27.45;34.16
69239;BME280;56349;51.816;-0.026;2023-08-12T09:30:20;100785.48;;;27.23;34.13
69239;BME280;56349;51.816;-0.026;2023-08-12T09:35:15;100779.68;;;27.47;34.15
69239;BME280;56349;51.816;-0.026;2023-08-12T09:37:34;100772.32;;;27.49;34.13
69239;BME280;56349;51.816;-0.026;2023-08-12T09:40:00;100769.74;;;27.30;34.09
69239;BME280;56349;51.816;-0.026;2023-08-12T09:42:28;100765.45;;;27.53;34.06
69239;BME280;56349;51.816;-0.026;2023-08-12T09:44:51;100766.52;;;27.33;34.06
69239;BME280;56349;51.816;-0.026;2023-08-12T09:47:17;100769.18;;;27.34;34.06
69239;BME280;56349;51.816;-0.026;2023-08-12T09:49:43;100768.68;;;27.34;34.03
69239;BME280;56349;51.816;-0.026;2023-08-12T09:52:09;100771.02;;;27.57;34.03
69239;BME280;56349;51.816;-0.026;2023-08-12T09:54:35;100776.51;;;27.58;34.01
69239;BME280;56349;51.816;-0.026;2023-08-12T09:57:02;100780.74;;;27.35;34.01
69239;BME280;56349;51.816;-0.026;2023-08-12T09:59:30;100782.92;;;27.57;34.01
69239;BME280;56349;51.816;-0.026;2023-08-12T10:01:53;100784.84;;;27.33;33.99
69239;BME280;56349;51.816;-0.026;2023-08-12T10:04:22;100790.90;;;27.33;33.99
69239;BME280;56349;51.816;-0.026;2023-08-12T10:06:44;100789.20;;;27.55;33.99
69239;BME280;56349;51.816;-0.026;2023-08-12T10:09:10;100785.99;;;27.56;33.99
69239;BME280;56349;51.816;-0.026;2023-08-12T10:11:35;100785.57;;;27.56;33.97
69239;BME280;56349;51.816;-0.026;2023-08-12T10:14:00;100786.35;;;27.33;33.99
69239;BME280;56349;51.816;-0.026;2023-08-12T10:16:26;100784.01;;;27.32;33.99
69239;BME280;56349;51.816;-0.026;2023-08-12T10:18:52;100782.23;;;27.55;33.97
69239;BME280;56349;51.816;-0.026;2023-08-12T10:21:17;100776.84;;;27.57;33.93
69239;BME280;56349;51.816;-0.026;2023-08-12T10:23:42;100777.12;;;27.58;33.90
69239;BME280;56349;51.816;-0.026;2023-08-12T10:26:08;100774.75;;;27.58;33.89
69239;BME280;56349;51.816;-0.026;2023-08-12T10:28:33;100771.42;;;27.35;33.89
69239;BME280;56349;51.816;-0.026;2023-08-12T10:30:59;100779.11;;;27.56;33.91
69239;BME280;56349;51.816;-0.026;2023-08-12T10:33:25;100779.14;;;27.55;33.92
69239;BME280;56349;51.816;-0.026;2023-08-12T10:35:51;100783.81;;;27.53;33.92
69239;BME280;56349;51.816;-0.026;2023-08-12T10:38:18;100787.36;;;27.30;33.90
69239;BME280;56349;51.816;-0.026;2023-08-12T10:40:43;100793.35;;;27.30;33.89
69239;BME280;56349;51.816;-0.026;2023-08-12T10:43:09;100797.72;;;27.30;33.86
69239;BME280;56349;51.816;-0.026;2023-08-12T10:45:42;100795.71;;;27.52;33.82
69239;BME280;56349;51.816;-0.026;2023-08-12T10:48:10;100799.34;;;27.52;33.86
69239;BME280;56349;51.816;-0.026;2023-08-12T10:50:26;100795.80;;;27.28;33.89
69239;BME280;56349;51.816;-0.026;2023-08-12T10:52:52;100797.22;;;27.02;33.88
69239;BME280;56349;51.816;-0.026;2023-08-12T10:55:19;100795.98;;;27.28;33.89
69239;BME280;56349;51.816;-0.026;2023-08-12T10:57:40;100793.55;;;27.50;33.89
69239;BME280;56349;51.816;-0.026;2023-08-12T11:00:11;100794.83;;;27.50;33.88
69239;BME280;56349;51.816;-0.026;2023-08-12T11:02:33;100795.54;;;27.49;33.88
69239;BME280;56349;51.816;-0.026;2023-08-12T11:05:02;100804.47;;;27.28;33.87
69239;BME280;56349;51.816;-0.026;2023-08-12T11:07:33;100803.42;;;27.27;33.89
69239;BME280;56349;51.816;-0.026;2023-08-12T11:09:51;100803.70;;;27.28;33.83
69239;BME280;56349;51.816;-0.026;2023-08-12T11:12:17;100804.43;;;27.52;33.81
69239;BME280;56349;51.816;-0.026;2023-08-12T11:14:47;100796.49;;;27.54;33.81
69239;BME280;56349;51.816;-0.026;2023-08-12T11:17:11;100798.74;;;27.33;33.83
69239;BME280;56349;51.816;-0.026;2023-08-12T11:19:30;100794.78;;;27.33;33.82
69239;BME280;56349;51.816;-0.026;2023-08-12T11:21:55;100793.42;;;27.35;33.80
69239;BME280;56349;51.816;-0.026;2023-08-12T11:24:21;100793.14;;;27.38;33.79
69239;BME280;56349;51.816;-0.026;2023-08-12T11:26:48;100796.83;;;27.61;33.78
69239;BME280;56349;51.816;-0.026;2023-08-12T11:29:12;100790.23;;;27.41;33.78
69239;BME280;56349;51.816;-0.026;2023-08-12T11:31:39;100779.41;;;27.43;33.76
69239;BME280;56349;51.816;-0.026;2023-08-12T11:34:04;100770.22;;;27.45;33.75
69239;BME280;56349;51.816;-0.026;2023-08-12T11:36:29;100760.86;;;27.46;33.75
69239;BME280;56349;51.816;-0.026;2023-08-12T11:38:56;100756.30;;;27.21;33.71
69239;BME280;56349;51.816;-0.026;2023-08-12T11:41:22;100756.21;;;27.22;33.72
69239;BME280;56349;51.816;-0.026;2023-08-12T11:43:47;100753.12;;;27.71;33.73
69239;BME280;56349;51.816;-0.026;2023-08-12T11:46:15;100748.47;;;27.49;33.72
69239;BME280;56349;51.816;-0.026;2023-08-12T11:48:39;100751.91;;;27.51;33.72
69239;BME280;56349;51.816;-0.026;2023-08-12T11:51:05;100748.45;;;27.52;33.71
69239;BME280;56349;51.816;-0.026;2023-08-12T11:53:31;100744.17;;;27.27;33.69
69239;BME280;56349;51.816;-0.026;2023-08-12T11:55:57;100741.73;;;27.27;33.69
69239;BME280;56349;51.816;-0.026;2023-08-12T11:58:23;100735.15;;;27.75;33.68
69239;BME280;56349;51.816;-0.026;2023-08-12T12:00:49;100754.13;;;27.52;33.68
69239;BME280;56349;51.816;-0.026;2023-08-12T12:03:16;100763.41;;;27.24;33.66
69239;BME280;56349;51.816;-0.026;2023-08-12T12:05:41;100756.31;;;27.50;33.65
69239;BME280;56349;51.816;-0.026;2023-08-12T12:08:07;100757.96;;;27.22;33.66
69239;BME280;56349;51.816;-0.026;2023-08-12T12:10:33;100756.99;;;27.49;33.66
69239;BME280;56349;51.816;-0.026;2023-08-12T12:12:59;100757.55;;;27.50;33.67
69239;BME280;56349;51.816;-0.026;2023-08-12T12:15:24;100753.08;;;27.50;33.65
69239;BME280;56349;51.816;-0.026;2023-08-12T12:17:50;100752.00;;;27.25;33.66
69239;BME280;56349;51.816;-0.026;2023-08-12T12:20:15;100748.64;;;27.75;33.65
69239;BME280;56349;51.816;-0.026;2023-08-12T12:22:42;100743.87;;;27.53;33.66
69239;BME280;56349;51.816;-0.026;2023-08-12T12:25:08;100746.83;;;27.54;33.65
69239;BME280;56349;51.816;-0.026;2023-08-12T12:27:33;100743.42;;;27.28;33.64
69239;BME280;56349;51.816;-0.026;2023-08-12T12:29:59;100739.27;;;27.56;33.62
69239;BME280;56349;51.816;-0.026;2023-08-12T12:32:26;100740.69;;;27.31;33.63
69239;BME280;56349;51.816;-0.026;2023-08-12T12:34:50;100732.58;;;27.58;33.62